createdAt,value
2018-09-29T00:02:07.099Z,15.39
2018-09-29T00:04:35.970Z,15.35
2018-09-29T00:07:09.684Z,15.37
2018-09-29T00:09:38.829Z,15.32
2018-09-29T00:12:07.704Z,15.28
2018-09-29T00:14:36.632Z,15.16
2018-09-29T00:17:16.564Z,15.11
2018-09-29T00:19:45.362Z,14.95
2018-09-29T00:22:14.557Z,15.05
2018-09-29T00:24:43.462Z,15.08
2018-09-29T00:27:16.436Z,14.93
2018-09-29T00:29:45.552Z,14.99
2018-09-29T00:32:14.780Z,14.90
2018-09-29T00:34:43.707Z,14.90
2018-09-29T00:37:27.836Z,14.93
2018-09-29T00:39:57.616Z,14.89
2018-09-29T00:42:26.767Z,14.88
2018-09-29T00:44:55.594Z,14.77
2018-09-29T00:47:24.477Z,14.72
2018-09-29T00:49:53.579Z,14.62
2018-09-29T00:52:22.450Z,14.52
2018-09-29T00:54:51.252Z,14.53
2018-09-29T00:57:20.405Z,14.53
2018-09-29T00:59:54.289Z,14.46
2018-09-29T01:02:23.148Z,14.48
2018-09-29T01:04:54.980Z,14.51
2018-09-29T01:07:23.842Z,14.45
2018-09-29T01:09:52.981Z,14.41
2018-09-29T01:12:21.810Z,14.38
2018-09-29T01:14:50.594Z,14.40
2018-09-29T01:17:21.348Z,14.16
2018-09-29T01:19:50.192Z,14.17
2018-09-29T01:22:19.064Z,14.22
2018-09-29T01:24:59.213Z,14.19
2018-09-29T01:27:28.062Z,14.24
2018-09-29T01:29:57.387Z,14.29
2018-09-29T01:32:26.241Z,14.25
2018-09-29T01:34:55.062Z,14.27
2018-09-29T01:37:23.855Z,14.25
2018-09-29T01:39:54.060Z,14.25
2018-09-29T01:42:23.238Z,14.13
2018-09-29T01:44:52.043Z,14.01
2018-09-29T01:47:20.856Z,13.98
2018-09-29T01:49:50.152Z,14.01
2018-09-29T01:52:19.252Z,14.06
2018-09-29T01:54:53.288Z,13.92
2018-09-29T01:57:22.596Z,13.86
2018-09-29T01:59:51.448Z,13.89
2018-09-29T02:02:22.791Z,13.86
2018-09-29T02:04:53.312Z,13.87
2018-09-29T02:07:32.969Z,13.83
2018-09-29T02:10:02.856Z,13.72
2018-09-29T02:12:31.656Z,13.71
2018-09-29T02:15:00.524Z,13.74
2018-09-29T02:17:29.756Z,13.68
2018-09-29T02:20:00.668Z,13.55
2018-09-29T02:22:29.491Z,13.57
2018-09-29T02:24:58.657Z,13.52
2018-09-29T02:27:27.467Z,13.48
2018-09-29T02:29:56.276Z,13.36
2018-09-29T02:32:27.281Z,13.38
2018-09-29T02:34:56.109Z,13.12
2018-09-29T02:37:24.924Z,13.15
2018-09-29T02:39:54.081Z,13.22
2018-09-29T02:42:26.061Z,13.29
2018-09-29T02:44:54.912Z,13.24
2018-09-29T02:47:24.236Z,13.21
2018-09-29T02:49:53.028Z,13.21
2018-09-29T02:52:21.922Z,13.14
2018-09-29T02:54:56.018Z,13.00
2018-09-29T02:57:24.858Z,13.01
2018-09-29T03:00:04.241Z,13.05
2018-09-29T03:02:33.429Z,12.98
2018-09-29T03:05:04.427Z,12.96
2018-09-29T03:07:33.235Z,12.91
2018-09-29T03:10:07.467Z,12.84
2018-09-29T03:12:36.244Z,12.86
2018-09-29T03:15:05.915Z,12.82
2018-09-29T03:17:35.004Z,12.86
2018-09-29T03:20:04.620Z,12.87
2018-09-29T03:22:33.400Z,12.81
2018-09-29T03:25:02.705Z,12.80
2018-09-29T03:27:31.489Z,12.77
2018-09-29T03:30:00.279Z,12.77
2018-09-29T03:35:12.464Z,12.75
2018-09-29T03:37:45.288Z,12.70
2018-09-29T03:40:14.101Z,12.66
2018-09-29T03:42:42.932Z,12.63
2018-09-29T03:45:12.217Z,12.61
2018-09-29T03:47:41.266Z,12.59
2018-09-29T03:50:10.107Z,12.60
2018-09-29T03:52:42.802Z,12.61
2018-09-29T03:55:11.617Z,12.54
2018-09-29T03:57:40.434Z,12.44
2018-09-29T04:00:22.168Z,12.46
2018-09-29T04:02:50.988Z,12.50
2018-09-29T04:05:19.777Z,12.41
2018-09-29T04:07:52.953Z,12.40
2018-09-29T04:10:21.756Z,12.35
2018-09-29T04:12:50.552Z,12.43
2018-09-29T04:17:53.161Z,12.41
2018-09-29T04:20:22.034Z,12.27
2018-09-29T04:22:50.869Z,12.29
2018-09-29T04:25:19.720Z,12.33
2018-09-29T04:27:48.551Z,12.33
2018-09-29T04:30:22.451Z,12.31
2018-09-29T04:32:51.271Z,12.21
2018-09-29T04:35:20.090Z,12.33
2018-09-29T04:37:55.582Z,12.25
2018-09-29T04:40:24.421Z,12.23
2018-09-29T04:42:53.560Z,12.27
2018-09-29T04:45:22.357Z,12.30
2018-09-29T04:47:51.125Z,12.25
2018-09-29T04:50:20.303Z,12.11
2018-09-29T04:52:50.017Z,12.14
2018-09-29T04:55:18.819Z,12.17
2018-09-29T04:57:48.032Z,12.20
2018-09-29T05:00:20.457Z,12.22
2018-09-29T05:02:49.304Z,12.25
2018-09-29T05:05:18.650Z,12.20
2018-09-29T05:07:47.461Z,12.23
2018-09-29T05:10:16.295Z,12.25
2018-09-29T05:12:45.562Z,12.19
2018-09-29T05:15:14.385Z,12.23
2018-09-29T05:17:43.180Z,12.25
2018-09-29T05:20:11.975Z,12.20
2018-09-29T05:22:40.780Z,12.17
2018-09-29T05:25:21.003Z,12.14
2018-09-29T05:27:49.806Z,12.01
2018-09-29T05:30:19.384Z,11.98
2018-09-29T05:32:48.583Z,12.04
2018-09-29T05:35:23.072Z,11.89
2018-09-29T05:37:51.973Z,11.89
2018-09-29T05:40:20.748Z,11.90
2018-09-29T05:42:49.544Z,11.92
2018-09-29T05:45:18.789Z,11.89
2018-09-29T05:47:47.610Z,11.83
2018-09-29T05:50:16.448Z,11.79
2018-09-29T05:52:45.725Z,11.74
2018-09-29T05:55:14.569Z,11.41
2018-09-29T05:57:43.410Z,11.55
2018-09-29T06:00:12.672Z,11.58
2018-09-29T06:02:41.540Z,11.60
2018-09-29T06:05:10.393Z,11.62
2018-09-29T06:07:39.591Z,11.57
2018-09-29T06:10:08.552Z,11.59
2018-09-29T06:12:37.409Z,11.67
2018-09-29T06:15:06.747Z,11.64
2018-09-29T06:17:35.641Z,11.77
2018-09-29T06:20:05.157Z,11.84
2018-09-29T06:22:33.964Z,11.88
2018-09-29T06:25:02.743Z,11.92
2018-09-29T06:27:32.102Z,12.00
2018-09-29T06:30:00.947Z,12.10
2018-09-29T06:32:29.728Z,12.14
2018-09-29T06:34:58.801Z,12.15
2018-09-29T06:37:27.641Z,12.20
2018-09-29T06:39:56.933Z,12.27
2018-09-29T06:42:25.816Z,12.37
2018-09-29T06:44:54.656Z,12.42
2018-09-29T06:47:23.865Z,12.19
2018-09-29T06:49:54.356Z,12.28
2018-09-29T06:52:24.049Z,12.40
2018-09-29T06:54:53.679Z,12.46
2018-09-29T06:57:22.576Z,12.47
2018-09-29T06:59:51.357Z,12.49
2018-09-29T07:02:21.093Z,12.44
2018-09-29T07:04:49.928Z,12.36
2018-09-29T07:07:18.791Z,12.36
2018-09-29T07:09:48.034Z,12.41
2018-09-29T07:12:16.853Z,12.66
2018-09-29T07:14:45.742Z,12.72
2018-09-29T07:17:25.874Z,12.71
2018-09-29T07:19:54.807Z,12.83
2018-09-29T07:22:24.037Z,12.96
2018-09-29T07:24:52.900Z,12.86
2018-09-29T07:27:21.761Z,12.87
2018-09-29T07:29:51.028Z,12.94
2018-09-29T07:32:19.957Z,13.02
2018-09-29T07:34:52.974Z,13.06
2018-09-29T07:37:22.239Z,13.29
2018-09-29T07:39:51.153Z,13.30
2018-09-29T07:42:20.299Z,13.32
2018-09-29T07:44:49.663Z,13.35
2018-09-29T07:47:18.491Z,13.53
2018-09-29T07:49:47.378Z,13.83
2018-09-29T07:52:17.865Z,14.12
2018-09-29T07:54:47.235Z,14.36
2018-09-29T07:57:20.447Z,14.36
2018-09-29T07:59:49.844Z,14.76
2018-09-29T08:02:41.662Z,15.17
2018-09-29T08:05:16.260Z,15.77
2018-09-29T08:07:45.709Z,15.97
2018-09-29T08:10:19.482Z,16.06
2018-09-29T08:12:48.748Z,15.99
2018-09-29T08:15:29.345Z,16.28
2018-09-29T08:18:06.929Z,16.44
2018-09-29T08:20:35.937Z,16.44
2018-09-29T08:23:16.000Z,16.72
2018-09-29T08:25:44.927Z,16.92
2018-09-29T08:28:14.299Z,17.10
2018-09-29T08:30:43.479Z,16.81
2018-09-29T08:33:12.578Z,17.27
2018-09-29T08:35:48.870Z,17.11
2018-09-29T08:38:18.246Z,17.44
2018-09-29T08:40:47.567Z,17.52
2018-09-29T08:43:16.406Z,17.32
2018-09-29T08:45:45.339Z,17.23
2018-09-29T08:48:14.499Z,17.38
2018-09-29T08:50:43.641Z,17.82
2018-09-29T08:53:12.519Z,17.69
2018-09-29T08:55:41.790Z,17.78
2018-09-29T08:58:11.256Z,17.72
2018-09-29T09:00:40.393Z,17.92
2018-09-29T09:03:15.600Z,17.75
2018-09-29T09:05:44.469Z,17.85
2018-09-29T09:08:16.140Z,18.17
2018-09-29T09:10:45.435Z,17.88
2018-09-29T09:13:14.264Z,18.27
2018-09-29T09:15:43.083Z,18.27
2018-09-29T09:18:18.106Z,18.31
2018-09-29T09:20:46.941Z,18.71
2018-09-29T09:23:20.545Z,19.20
2018-09-29T09:25:49.668Z,18.88
2018-09-29T09:28:18.479Z,19.12
2018-09-29T09:30:47.309Z,19.32
2018-09-29T09:35:55.944Z,19.32
2018-09-29T09:38:24.840Z,19.53
2018-09-29T09:40:54.283Z,18.77
2018-09-29T09:43:23.155Z,19.22
2018-09-29T09:45:52.590Z,19.55
2018-09-29T09:48:21.418Z,19.73
2018-09-29T09:50:53.304Z,19.73
2018-09-29T09:53:22.669Z,19.93
2018-09-29T09:55:51.618Z,20.07
2018-09-29T09:58:20.501Z,20.60
2018-09-29T10:00:54.620Z,20.63
2018-09-29T10:03:35.248Z,20.72
2018-09-29T10:06:08.539Z,20.95
2018-09-29T10:08:41.476Z,21.12
2018-09-29T10:11:14.874Z,21.44
2018-09-29T10:13:52.990Z,21.07
2018-09-29T10:16:24.990Z,21.06
2018-09-29T10:18:58.299Z,21.21
2018-09-29T10:21:31.525Z,21.62
2018-09-29T10:24:13.119Z,21.28
2018-09-29T10:26:45.224Z,21.81
2018-09-29T10:29:22.843Z,21.68
2018-09-29T10:31:52.509Z,21.94
2018-09-29T10:34:21.999Z,22.23
2018-09-29T10:36:50.897Z,22.78
2018-09-29T10:39:19.757Z,23.12
2018-09-29T10:41:49.229Z,22.51
2018-09-29T10:44:18.178Z,22.56
2018-09-29T10:46:49.996Z,22.20
2018-09-29T10:49:19.619Z,22.79
2018-09-29T10:51:48.372Z,23.73
2018-09-29T10:54:17.174Z,23.72
2018-09-29T10:56:46.449Z,23.86
2018-09-29T10:59:15.365Z,23.73
2018-09-29T11:01:46.273Z,24.65
2018-09-29T11:04:15.543Z,24.63
2018-09-29T11:06:44.492Z,24.90
2018-09-29T11:09:13.294Z,25.69
2018-09-29T11:11:42.656Z,25.70
2018-09-29T11:14:14.664Z,25.62
2018-09-29T11:16:43.510Z,24.82
2018-09-29T11:19:12.655Z,24.94
2018-09-29T11:21:41.591Z,25.82
2018-09-29T11:24:10.542Z,26.04
2018-09-29T11:26:39.769Z,26.10
2018-09-29T11:29:08.577Z,26.66
2018-09-29T11:31:37.636Z,26.19
2018-09-29T11:34:06.969Z,26.70
2018-09-29T11:36:35.824Z,26.16
2018-09-29T11:39:11.770Z,26.07
2018-09-29T11:41:41.044Z,26.19
2018-09-29T11:44:10.253Z,27.16
2018-09-29T11:46:39.533Z,27.25
2018-09-29T11:49:08.749Z,26.31
2018-09-29T11:51:43.328Z,26.78
2018-09-29T11:54:17.256Z,26.66
2018-09-29T11:56:51.323Z,26.53
2018-09-29T11:59:20.820Z,27.89
2018-09-29T12:01:49.783Z,28.64
2018-09-29T12:04:19.321Z,27.51
2018-09-29T12:06:48.255Z,28.16
2018-09-29T12:09:17.100Z,28.09
2018-09-29T12:11:46.308Z,28.19
2018-09-29T12:14:17.659Z,28.21
2018-09-29T12:16:49.033Z,27.49
2018-09-29T12:19:18.348Z,27.63
2018-09-29T12:21:47.210Z,27.95
2018-09-29T12:24:16.040Z,29.26
2018-09-29T12:26:45.215Z,29.80
2018-09-29T12:29:14.141Z,30.42
2018-09-29T12:31:43.095Z,30.94
2018-09-29T12:34:18.002Z,30.49
2018-09-29T12:36:46.937Z,29.33
2018-09-29T12:39:16.118Z,28.97
2018-09-29T12:41:45.314Z,29.76
2018-09-29T12:44:14.267Z,29.62
2018-09-29T12:46:43.170Z,28.70
2018-09-29T12:49:12.481Z,28.63
2018-09-29T12:51:41.411Z,29.05
2018-09-29T12:54:10.295Z,29.42
2018-09-29T12:56:39.457Z,29.89
2018-09-29T12:59:08.427Z,30.06
2018-09-29T13:01:37.457Z,29.17
2018-09-29T13:04:08.642Z,29.69
2018-09-29T13:06:37.603Z,28.87
2018-09-29T13:09:12.648Z,29.05
2018-09-29T13:11:44.121Z,29.65
2018-09-29T13:14:13.060Z,29.92
2018-09-29T13:16:42.014Z,29.42
2018-09-29T13:19:11.456Z,29.39
2018-09-29T13:21:40.302Z,28.46
2018-09-29T13:24:10.457Z,27.81
2018-09-29T13:26:39.792Z,28.64
2018-09-29T13:29:08.656Z,28.77
2018-09-29T13:31:41.348Z,28.93
2018-09-29T13:34:10.606Z,28.57
2018-09-29T13:36:39.534Z,29.20
2018-09-29T13:39:08.617Z,28.45
2018-09-29T13:41:38.113Z,27.81
2018-09-29T13:44:07.077Z,27.93
2018-09-29T13:46:35.960Z,28.60
2018-09-29T13:49:05.799Z,28.84
2018-09-29T13:51:35.030Z,28.30
2018-09-29T13:54:05.588Z,27.55
2018-09-29T13:56:34.879Z,28.07
2018-09-29T13:59:04.088Z,28.21
2018-09-29T14:01:39.208Z,27.97
2018-09-29T14:04:08.899Z,27.76
2018-09-29T14:06:37.785Z,28.42
2018-09-29T14:09:08.953Z,28.57
2018-09-29T14:11:38.013Z,28.30
2018-09-29T14:14:10.829Z,27.74
2018-09-29T14:16:40.288Z,28.27
2018-09-29T14:19:09.338Z,27.94
2018-09-29T14:21:38.315Z,27.32
2018-09-29T14:24:08.825Z,27.60
2018-09-29T14:29:18.017Z,28.36
2018-09-29T14:31:55.138Z,28.17
2018-09-29T14:34:24.068Z,28.09
2018-09-29T14:36:53.101Z,27.91
2018-09-29T14:39:22.269Z,26.94
2018-09-29T14:41:51.201Z,26.83
2018-09-29T14:44:20.078Z,26.12
2018-09-29T14:46:54.366Z,25.85
2018-09-29T14:49:23.252Z,26.08
2018-09-29T14:51:57.333Z,26.56
2018-09-29T14:54:26.221Z,26.63
2018-09-29T14:57:00.720Z,27.02
2018-09-29T14:59:29.956Z,26.90
2018-09-29T15:01:58.856Z,26.45
2018-09-29T15:04:27.745Z,25.72
2018-09-29T15:06:56.712Z,25.77
2018-09-29T15:09:25.628Z,25.51
2018-09-29T15:11:54.813Z,26.00
2018-09-29T15:14:23.760Z,25.68
2018-09-29T15:16:52.608Z,26.29
2018-09-29T15:19:21.778Z,25.89
2018-09-29T15:21:50.606Z,25.91
2018-09-29T15:24:20.888Z,25.86
2018-09-29T15:26:50.060Z,25.69
2018-09-29T15:29:21.344Z,25.96
2018-09-29T15:31:52.239Z,25.56
2018-09-29T15:34:23.496Z,25.73
2018-09-29T15:36:52.358Z,25.61
2018-09-29T15:39:21.368Z,24.83
2018-09-29T15:41:50.480Z,25.14
2018-09-29T15:44:19.328Z,24.94
2018-09-29T15:47:50.665Z,24.30
2018-09-29T15:50:25.317Z,24.47
2018-09-29T15:52:54.482Z,24.49
2018-09-29T15:55:23.595Z,24.53
2018-09-29T15:57:52.436Z,24.94
2018-09-29T16:00:21.678Z,24.58
2018-09-29T16:02:50.703Z,24.15
2018-09-29T16:05:19.545Z,24.37
2018-09-29T16:07:48.385Z,24.21
2018-09-29T16:10:17.420Z,24.01
2018-09-29T16:12:46.816Z,23.65
2018-09-29T16:15:26.793Z,23.43
2018-09-29T16:20:29.938Z,23.20
2018-09-29T16:22:59.025Z,23.19
2018-09-29T16:25:27.995Z,22.71
2018-09-29T16:27:56.849Z,22.25
2018-09-29T16:30:26.124Z,21.70
2018-09-29T16:32:55.056Z,21.76
2018-09-29T16:35:23.949Z,21.74
2018-09-29T16:37:56.598Z,21.52
2018-09-29T16:40:25.451Z,21.53
2018-09-29T16:42:54.948Z,21.65
2018-09-29T16:45:27.420Z,21.35
2018-09-29T16:47:56.260Z,21.24
2018-09-29T16:50:26.694Z,20.89
2018-09-29T16:52:55.548Z,21.07
2018-09-29T16:55:25.914Z,21.13
2018-09-29T16:57:55.030Z,21.13
2018-09-29T17:00:23.896Z,21.17
2018-09-29T17:02:52.913Z,21.02
2018-09-29T17:05:23.402Z,20.74
2018-09-29T17:07:52.512Z,20.58
2018-09-29T17:10:22.196Z,20.53
2018-09-29T17:12:51.328Z,20.61
2018-09-29T17:15:20.359Z,20.56
2018-09-29T17:17:49.329Z,20.44
2018-09-29T17:20:22.949Z,20.42
2018-09-29T17:22:51.843Z,20.32
2018-09-29T17:25:20.789Z,20.08
2018-09-29T17:27:49.914Z,20.08
2018-09-29T17:30:19.063Z,20.03
2018-09-29T17:32:51.561Z,20.02
2018-09-29T17:35:20.793Z,20.01
2018-09-29T17:37:49.665Z,19.91
2018-09-29T17:40:18.573Z,19.77
2018-09-29T17:42:47.817Z,19.48
2018-09-29T17:45:16.845Z,19.55
2018-09-29T17:47:45.702Z,19.62
2018-09-29T17:50:14.929Z,19.56
2018-09-29T17:52:43.985Z,19.24
2018-09-29T17:55:15.212Z,19.28
2018-09-29T17:57:44.552Z,19.39
2018-09-29T18:00:19.492Z,19.32
2018-09-29T18:02:49.788Z,19.31
2018-09-29T18:05:18.794Z,19.14
2018-09-29T18:07:49.165Z,19.13
2018-09-29T18:10:18.568Z,19.01
2018-09-29T18:12:47.898Z,19.05
2018-09-29T18:15:16.862Z,19.12
2018-09-29T18:17:46.058Z,18.96
2018-09-29T18:20:15.025Z,18.98
2018-09-29T18:22:46.831Z,18.97
2018-09-29T18:25:15.984Z,19.00
2018-09-29T18:27:44.815Z,18.86
2018-09-29T18:30:14.335Z,18.93
2018-09-29T18:32:43.501Z,18.83
2018-09-29T18:35:14.288Z,18.79
2018-09-29T18:37:43.156Z,18.74
2018-09-29T18:40:12.314Z,18.75
2018-09-29T18:42:41.300Z,18.61
2018-09-29T18:45:10.195Z,18.45
2018-09-29T18:47:39.523Z,18.47
2018-09-29T18:50:08.496Z,18.37
2018-09-29T18:52:37.328Z,18.40
2018-09-29T18:55:06.704Z,18.23
2018-09-29T18:57:36.717Z,18.00
2018-09-29T19:00:06.652Z,18.09
2018-09-29T19:02:35.804Z,18.10
2018-09-29T19:05:04.904Z,18.18
2018-09-29T19:07:33.941Z,18.17
2018-09-29T19:10:04.957Z,18.11
2018-09-29T19:15:25.553Z,18.07
2018-09-29T19:17:54.456Z,17.94
2018-09-29T19:20:25.393Z,17.98
2018-09-29T19:22:54.279Z,17.95
2018-09-29T19:25:23.185Z,17.87
2018-09-29T19:27:52.389Z,17.79
2018-09-29T19:30:24.287Z,17.72
2018-09-29T19:32:53.136Z,17.76
2018-09-29T19:35:23.406Z,17.78
2018-09-29T19:37:54.583Z,17.73
2018-09-29T19:40:23.524Z,17.70
2018-09-29T19:42:56.329Z,17.71
2018-09-29T19:45:25.185Z,17.70
2018-09-29T19:47:54.230Z,17.46
2018-09-29T19:50:24.378Z,17.41
2018-09-29T19:52:53.574Z,17.30
2018-09-29T19:55:29.752Z,17.24
2018-09-29T19:57:59.222Z,17.12
2018-09-29T20:00:32.854Z,17.09
2018-09-29T20:03:02.165Z,17.00
2018-09-29T20:05:31.483Z,17.08
2018-09-29T20:08:00.713Z,17.05
2018-09-29T20:10:31.311Z,16.76
2018-09-29T20:15:53.327Z,16.94
2018-09-29T20:18:22.592Z,16.88
2018-09-29T20:20:56.504Z,16.94
2018-09-29T20:23:25.450Z,16.84
2018-09-29T20:25:56.442Z,16.76
2018-09-29T20:28:25.344Z,16.87
2018-09-29T20:30:54.477Z,16.89
2018-09-29T20:33:24.566Z,16.79
2018-09-29T20:35:53.811Z,16.64
2018-09-29T20:38:22.731Z,16.40
2018-09-29T20:40:52.013Z,16.39
2018-09-29T20:46:01.429Z,16.29
2018-09-29T20:48:30.395Z,16.14
2018-09-29T20:50:59.262Z,16.19
2018-09-29T20:53:32.267Z,16.16
2018-09-29T20:56:01.314Z,15.97
2018-09-29T20:58:30.842Z,15.94
2018-09-29T21:01:00.019Z,15.94
2018-09-29T21:03:28.925Z,15.93
2018-09-29T21:06:04.467Z,15.90
2018-09-29T21:08:33.473Z,15.76
2018-09-29T21:11:02.635Z,15.63
2018-09-29T21:16:06.155Z,15.53
2018-09-29T21:18:35.110Z,15.47
2018-09-29T21:21:04.280Z,15.47
2018-09-29T21:23:35.353Z,15.53
2018-09-29T21:26:06.761Z,15.57
2018-09-29T21:28:37.516Z,15.60
2018-09-29T21:31:06.401Z,15.63
2018-09-29T21:33:35.534Z,15.76
2018-09-29T21:36:05.141Z,15.77
2018-09-29T21:38:39.259Z,15.68
2018-09-29T21:41:08.611Z,15.40
2018-09-29T21:43:38.109Z,15.31
2018-09-29T21:46:06.995Z,15.33
2018-09-29T21:48:36.406Z,15.36
2018-09-29T21:51:05.310Z,15.40
2018-09-29T21:53:40.132Z,15.49
2018-09-29T21:56:09.096Z,15.49
2018-09-29T21:58:37.944Z,15.48
2018-09-29T22:01:22.500Z,15.56
2018-09-29T22:03:54.971Z,15.56
2018-09-29T22:06:24.254Z,15.59
2018-09-29T22:08:53.133Z,15.51
2018-09-29T22:11:22.097Z,15.56
2018-09-29T22:13:51.328Z,15.53
2018-09-29T22:16:20.237Z,15.48
2018-09-29T22:18:49.323Z,15.34
2018-09-29T22:21:19.666Z,15.37
2018-09-29T22:23:59.289Z,15.40
2018-09-29T22:26:28.142Z,15.40
2018-09-29T22:28:56.998Z,15.41
2018-09-29T22:31:25.873Z,15.33
2018-09-29T22:34:00.362Z,15.28
2018-09-29T22:36:29.249Z,15.03
2018-09-29T22:38:58.108Z,15.08
2018-09-29T22:41:28.428Z,15.11
2018-09-29T22:43:57.264Z,15.13
2018-09-29T22:46:26.093Z,15.14
2018-09-29T22:48:59.970Z,15.19
2018-09-29T22:51:28.803Z,15.23
2018-09-29T22:53:57.664Z,15.23
2018-09-29T22:56:26.491Z,15.14
2018-09-29T22:59:00.819Z,15.13
2018-09-29T23:01:30.051Z,15.07
2018-09-29T23:03:58.852Z,15.04
2018-09-29T23:06:27.656Z,15.10
2018-09-29T23:08:56.532Z,15.12
2018-09-29T23:11:28.213Z,15.08
2018-09-29T23:14:03.929Z,15.09
2018-09-29T23:16:32.852Z,15.10
2018-09-29T23:19:01.967Z,15.09
2018-09-29T23:21:31.075Z,15.04
2018-09-29T23:24:04.487Z,15.04
2018-09-29T23:26:33.324Z,15.04
2018-09-29T23:29:02.301Z,15.02
2018-09-29T23:31:31.248Z,14.82
2018-09-29T23:34:00.679Z,14.84
2018-09-29T23:36:29.548Z,14.84
2018-09-29T23:38:58.357Z,14.82
2018-09-29T23:41:33.237Z,14.80
2018-09-29T23:44:02.856Z,14.81
2018-09-29T23:46:32.180Z,14.74
2018-09-29T23:49:01.275Z,14.69
2018-09-29T23:51:36.219Z,14.73
2018-09-29T23:54:06.025Z,14.71
2018-09-29T23:56:35.127Z,14.61
2018-09-29T23:59:04.012Z,14.61
